Time;durP1;ratioP1;P1;durP2;ratioP2;P2;SDS_P1;SDS_P2;PMS_P1;PMS_P2;Temp;Humidity;BMP_temperature;BMP_pressure;BME280_temperature;BME280_humidity;BME280_pressure;Samples;Min_cycle;Max_cycle;Signal;HPM_P1;HPM_P2
2022/04/29 00:00:39;;;;;;;7.70;4.28;;;8.80;97.00;;;;;;5038272;28;20385;-73
2022/04/29 00:03:07;;;;;;;9.80;4.15;;;8.80;97.10;;;;;;5038027;28;20507;-74
2022/04/29 00:05:36;;;;;;;10.63;4.82;;;8.80;97.20;;;;;;5055657;28;20041;-73
2022/04/29 00:08:06;;;;;;;13.63;4.70;;;8.70;97.20;;;;;;5038058;28;20099;-73
2022/04/29 00:10:34;;;;;;;11.90;4.90;;;8.70;97.20;;;;;;5037849;28;20052;-73
2022/04/29 00:13:01;;;;;;;10.70;4.35;;;8.80;97.20;;;;;;5055797;28;20075;-73
2022/04/29 00:15:28;;;;;;;10.63;4.72;;;8.80;97.20;;;;;;5037837;28;20041;-73
2022/04/29 00:17:55;;;;;;;13.13;4.90;;;8.70;97.20;;;;;;5037457;28;20502;-72
2022/04/29 00:20:21;;;;;;;14.30;5.10;;;8.80;97.30;;;;;;5037742;28;20136;-73
2022/04/29 00:22:46;;;;;;;8.25;4.30;;;8.70;97.20;;;;;;5037736;28;20046;-73
2022/04/29 00:25:13;;;;;;;10.25;4.28;;;8.70;97.10;;;;;;5021195;28;20456;-73
2022/04/29 00:27:42;;;;;;;8.20;4.40;;;8.60;97.20;;;;;;5055427;28;20085;-73
2022/04/29 00:30:10;;;;;;;11.20;4.57;;;8.70;97.40;;;;;;5037375;28;20048;-73
2022/04/29 00:32:37;;;;;;;10.05;4.95;;;8.70;97.30;;;;;;5037836;28;20064;-73
2022/04/29 00:35:03;;;;;;;11.43;4.60;;;8.70;97.20;;;;;;5037428;28;20048;-72
2022/04/29 00:37:30;;;;;;;10.07;4.20;;;8.50;97.20;;;;;;5037565;28;20071;-72
2022/04/29 00:39:56;;;;;;;5.65;4.45;;;8.50;97.40;;;;;;5037428;28;20090;-72
2022/04/29 00:42:22;;;;;;;7.72;4.40;;;8.50;97.40;;;;;;5037277;28;20053;-71
2022/04/29 00:44:49;;;;;;;10.70;4.70;;;8.50;97.50;;;;;;5054750;28;20541;-72
2022/04/29 00:47:19;;;;;;;11.07;4.90;;;8.60;97.50;;;;;;5053951;28;20045;-72
2022/04/29 00:49:45;;;;;;;8.88;4.65;;;8.60;97.50;;;;;;5037617;28;20091;-72
2022/04/29 00:52:14;;;;;;;7.65;4.40;;;8.50;97.50;;;;;;5054646;28;20480;-72
2022/04/29 00:54:42;;;;;;;15.57;5.15;;;8.50;97.60;;;;;;5036789;28;20388;-72
2022/04/29 00:57:24;;;;;;;9.30;4.35;;;8.60;97.60;;;;;;5036885;28;20052;-72
2022/04/29 00:59:53;;;;;;;7.57;3.90;;;8.60;97.50;;;;;;5037419;28;20118;-72
2022/04/29 01:02:19;;;;;;;12.90;4.85;;;8.60;97.40;;;;;;5037044;28;20067;-72
2022/04/29 01:05:05;;;;;;;8.07;4.13;;;8.60;97.50;;;;;;5020417;28;20036;-72
2022/04/29 01:07:33;;;;;;;7.53;4.60;;;8.70;97.60;;;;;;5036826;28;20049;-72
2022/04/29 01:09:59;;;;;;;7.55;4.18;;;8.70;97.40;;;;;;5036382;28;20045;-72
2022/04/29 01:12:26;;;;;;;6.82;4.50;;;8.60;97.30;;;;;;5020236;28;20052;-72
2022/04/29 01:14:54;;;;;;;10.63;4.80;;;8.40;97.20;;;;;;5036810;28;20099;-72
2022/04/29 01:17:19;;;;;;;9.13;4.43;;;8.40;97.40;;;;;;5036422;28;20052;-72
2022/04/29 01:19:45;;;;;;;8.50;4.45;;;8.30;97.50;;;;;;5036643;28;20369;-72
2022/04/29 01:22:11;;;;;;;9.77;4.55;;;8.30;97.60;;;;;;5036560;28;20136;-72
2022/04/29 01:24:37;;;;;;;11.27;4.97;;;8.30;97.60;;;;;;5020168;28;20387;-74
2022/04/29 01:27:10;;;;;;;6.60;4.38;;;8.30;97.60;;;;;;5054125;28;20051;-72
2022/04/29 01:29:40;;;;;;;7.45;4.25;;;8.20;97.80;;;;;;5036551;28;20040;-73
2022/04/29 01:32:10;;;;;;;10.77;4.95;;;8.20;97.70;;;;;;5036438;28;20136;-73
2022/04/29 01:34:36;;;;;;;9.30;4.88;;;8.20;97.80;;;;;;5036312;28;20060;-73
2022/04/29 01:37:03;;;;;;;7.20;4.25;;;8.20;97.80;;;;;;5036401;28;20480;-73
2022/04/29 01:39:28;;;;;;;14.68;5.05;;;8.30;97.70;;;;;;5036045;28;20132;-73
2022/04/29 01:41:54;;;;;;;13.68;5.30;;;8.30;97.80;;;;;;5036450;28;20133;-72
2022/04/29 01:44:20;;;;;;;10.60;4.60;;;8.40;97.90;;;;;;5053832;28;20084;-73
2022/04/29 01:46:47;;;;;;;7.78;4.60;;;8.60;97.80;;;;;;5037876;28;20053;-73
2022/04/29 01:49:13;;;;;;;9.27;4.57;;;8.60;97.60;;;;;;5052861;28;20370;-72
2022/04/29 01:51:38;;;;;;;8.95;4.72;;;8.40;97.60;;;;;;5036110;28;20045;-73
2022/04/29 01:54:09;;;;;;;11.00;4.60;;;8.40;97.80;;;;;;5053698;28;20041;-72
2022/04/29 01:56:35;;;;;;;9.57;4.40;;;8.40;97.70;;;;;;5052756;28;20396;-73
2022/04/29 01:59:03;;;;;;;9.43;4.38;;;8.40;97.70;;;;;;5053334;28;20163;-73
2022/04/29 02:01:29;;;;;;;9.80;5.25;;;8.40;97.80;;;;;;5052583;28;20488;-73
2022/04/29 02:03:55;;;;;;;7.78;4.32;;;8.30;97.70;;;;;;5052739;28;20049;-73
2022/04/29 02:06:21;;;;;;;9.75;4.80;;;8.40;97.80;;;;;;5052574;28;20472;-73
2022/04/29 02:08:48;;;;;;;12.45;5.00;;;8.30;97.90;;;;;;5053577;28;20084;-73
2022/04/29 02:11:14;;;;;;;12.27;5.05;;;8.30;97.80;;;;;;5053404;28;20099;-73
2022/04/29 02:13:39;;;;;;;7.70;5.07;;;8.30;98.00;;;;;;5052477;28;20045;-73
2022/04/29 02:16:05;;;;;;;8.50;5.15;;;8.30;98.00;;;;;;5035540;28;20045;-73
2022/04/29 02:18:31;;;;;;;11.93;5.05;;;8.30;98.00;;;;;;5052536;28;20048;-73
2022/04/29 02:20:56;;;;;;;10.80;5.10;;;8.20;98.00;;;;;;5035832;28;20053;-73
2022/04/29 02:23:22;;;;;;;13.25;5.75;;;8.20;98.10;;;;;;5052461;28;20056;-73
2022/04/29 02:25:48;;;;;;;13.13;5.60;;;8.30;98.30;;;;;;5052456;28;20069;-73
2022/04/29 02:28:13;;;;;;;8.50;5.47;;;8.30;98.20;;;;;;5035580;28;20045;-73
2022/04/29 02:30:40;;;;;;;9.85;4.93;;;8.40;98.30;;;;;;5052114;28;20048;-72
2022/04/29 02:33:07;;;;;;;10.52;6.20;;;8.40;98.30;;;;;;5035987;28;20503;-73
2022/04/29 02:35:33;;;;;;;10.25;5.32;;;8.40;98.30;;;;;;5052312;28;20092;-73
2022/04/29 02:37:58;;;;;;;10.45;5.45;;;8.40;98.40;;;;;;5052344;28;20142;-73
2022/04/29 02:40:24;;;;;;;10.52;5.70;;;8.40;98.40;;;;;;5052346;28;20052;-73
2022/04/29 02:42:51;;;;;;;10.68;5.60;;;8.50;98.40;;;;;;5052282;28;20048;-72
2022/04/29 02:45:17;;;;;;;12.73;5.45;;;8.50;98.40;;;;;;5051895;28;20502;-72
2022/04/29 02:47:42;;;;;;;8.80;4.90;;;8.50;98.40;;;;;;5051496;28;20056;-72
2022/04/29 02:50:09;;;;;;;10.50;5.13;;;8.60;98.40;;;;;;5052049;28;20539;-72
2022/04/29 02:52:34;;;;;;;13.25;5.78;;;8.60;98.40;;;;;;5052146;28;20044;-72
2022/04/29 02:55:00;;;;;;;10.20;5.78;;;8.70;98.40;;;;;;5052663;28;20048;-72
2022/04/29 02:57:27;;;;;;;13.10;5.80;;;8.60;98.40;;;;;;5052190;28;20365;-72
2022/04/29 02:59:54;;;;;;;15.27;5.70;;;8.60;98.50;;;;;;5052174;28;20049;-72
2022/04/29 03:02:20;;;;;;;12.23;6.10;;;8.60;98.60;;;;;;5035711;28;20045;-72
2022/04/29 03:04:45;;;;;;;11.75;6.40;;;8.70;98.60;;;;;;5052050;28;20095;-72
2022/04/29 03:07:11;;;;;;;10.60;5.68;;;8.60;98.50;;;;;;5052053;28;20044;-72
2022/04/29 03:09:37;;;;;;;9.32;5.20;;;8.60;98.50;;;;;;5054517;28;20136;-72
2022/04/29 03:12:03;;;;;;;13.02;6.28;;;8.60;98.60;;;;;;5055882;28;20436;-72
2022/04/29 03:14:28;;;;;;;11.68;5.72;;;8.70;98.70;;;;;;5055390;28;20075;-72
2022/04/29 03:16:54;;;;;;;9.35;5.95;;;8.70;98.60;;;;;;5055249;28;20045;-72
2022/04/29 03:19:19;;;;;;;8.68;5.70;;;8.70;98.60;;;;;;5055192;28;20055;-72
2022/04/29 03:21:45;;;;;;;9.77;6.10;;;8.70;98.60;;;;;;5055270;28;20125;-73
2022/04/29 03:24:11;;;;;;;10.27;5.90;;;8.60;98.60;;;;;;5056482;28;20048;-72
2022/04/29 03:26:37;;;;;;;11.00;6.03;;;8.60;98.70;;;;;;5056413;28;20080;-73
2022/04/29 03:29:03;;;;;;;9.00;6.00;;;8.60;98.80;;;;;;5055377;28;20123;-73
2022/04/29 03:31:29;;;;;;;11.20;5.60;;;8.60;98.80;;;;;;5056332;28;20127;-72
2022/04/29 03:33:54;;;;;;;12.02;6.00;;;8.70;98.70;;;;;;5055307;28;20049;-73
2022/04/29 03:36:20;;;;;;;12.57;6.30;;;8.70;98.70;;;;;;5056417;28;20071;-73
2022/04/29 03:38:46;;;;;;;9.90;6.00;;;8.70;98.60;;;;;;5055023;28;20060;-72
2022/04/29 03:41:12;;;;;;;13.32;6.65;;;8.70;98.60;;;;;;5055177;28;20080;-72
2022/04/29 03:43:38;;;;;;;12.30;5.82;;;8.70;98.70;;;;;;5055132;28;20064;-72
2022/04/29 03:46:05;;;;;;;13.00;6.07;;;8.60;98.60;;;;;;5055739;28;20403;-73
2022/04/29 03:51:15;;;;;;;13.45;6.85;;;8.50;98.80;;;;;;5038102;28;20049;-73
2022/04/29 03:53:41;;;;;;;12.10;6.88;;;8.50;98.90;;;;;;5038328;28;20048;-72
2022/04/29 03:56:06;;;;;;;16.65;6.45;;;8.60;98.90;;;;;;5038290;28;20533;-73
2022/04/29 03:58:32;;;;;;;13.02;7.15;;;8.50;98.90;;;;;;5038267;28;20091;-73
2022/04/29 04:00:58;;;;;;;13.18;6.35;;;8.70;99.00;;;;;;5021651;28;20052;-73
2022/04/29 04:03:23;;;;;;;12.15;5.97;;;8.80;99.00;;;;;;5055597;28;20064;-73
2022/04/29 04:08:35;;;;;;;14.27;6.63;;;8.90;99.00;;;;;;5038138;28;20061;-72
2022/04/29 04:11:01;;;;;;;11.30;6.72;;;8.90;99.00;;;;;;5037674;28;20045;-73
2022/04/29 04:13:27;;;;;;;12.75;6.20;;;8.90;99.00;;;;;;5037999;28;20053;-73
2022/04/29 04:15:52;;;;;;;10.23;5.60;;;8.90;99.00;;;;;;5037763;28;20037;-73
2022/04/29 04:18:18;;;;;;;13.88;6.40;;;8.90;99.10;;;;;;5021147;28;20055;-73
2022/04/29 04:20:44;;;;;;;13.70;6.60;;;8.90;99.10;;;;;;5036877;28;20087;-72
2022/04/29 04:23:10;;;;;;;12.93;6.55;;;8.90;99.10;;;;;;5037467;28;20077;-73
2022/04/29 04:25:36;;;;;;;12.32;6.57;;;9.00;99.10;;;;;;5037795;28;20049;-73
2022/04/29 04:28:01;;;;;;;14.18;6.53;;;9.00;99.10;;;;;;5055182;28;20535;-73
2022/04/29 04:30:27;;;;;;;12.00;6.75;;;9.00;99.10;;;;;;5054289;28;20476;-73
2022/04/29 04:32:53;;;;;;;11.98;6.32;;;9.00;99.10;;;;;;5053888;28;20619;-74
2022/04/29 04:35:19;;;;;;;12.02;6.15;;;9.00;99.10;;;;;;5037366;28;20048;-73
2022/04/29 04:37:44;;;;;;;10.73;6.10;;;9.00;99.20;;;;;;5037295;28;20049;-73
2022/04/29 04:40:11;;;;;;;9.07;5.50;;;9.10;99.20;;;;;;5037254;28;20041;-72
2022/04/29 04:42:46;;;;;;;10.75;6.25;;;9.10;99.20;;;;;;5020844;28;20098;-73
2022/04/29 04:45:13;;;;;;;13.57;7.30;;;9.10;99.20;;;;;;5054868;28;20552;-72
2022/04/29 04:47:39;;;;;;;10.40;6.32;;;9.20;99.20;;;;;;5044042;28;20594;-73
2022/04/29 04:50:05;;;;;;;10.65;6.25;;;9.20;99.20;;;;;;5054735;28;20045;-72
2022/04/29 04:52:31;;;;;;;12.43;6.45;;;9.20;99.30;;;;;;5053885;28;20052;-72
2022/04/29 04:54:56;;;;;;;13.85;7.15;;;9.20;99.30;;;;;;5053578;28;20045;-72
2022/04/29 04:57:22;;;;;;;9.40;5.90;;;9.20;99.40;;;;;;5053677;28;20396;-73
2022/04/29 04:59:48;;;;;;;12.25;6.93;;;9.40;99.50;;;;;;5054632;28;20063;-73
2022/04/29 05:02:13;;;;;;;12.10;7.22;;;9.40;99.50;;;;;;5053641;28;20052;-73
2022/04/29 05:04:39;;;;;;;13.50;6.80;;;9.50;99.50;;;;;;5053660;28;20080;-73
2022/04/29 05:07:05;;;;;;;17.27;6.78;;;9.60;99.60;;;;;;5054548;28;20132;-72
2022/04/29 05:09:31;;;;;;;13.60;7.10;;;9.70;99.70;;;;;;5054397;28;20076;-72
2022/04/29 05:11:56;;;;;;;9.38;6.75;;;9.80;99.70;;;;;;5054326;28;20059;-73
2022/04/29 05:14:22;;;;;;;15.38;6.57;;;9.90;99.80;;;;;;5053490;28;20375;-72
2022/04/29 05:16:48;;;;;;;10.90;6.25;;;10.10;99.70;;;;;;5052987;28;20388;-73
2022/04/29 05:19:13;;;;;;;12.57;7.13;;;10.20;99.70;;;;;;5053404;28;20091;-72
2022/04/29 05:21:39;;;;;;;11.10;6.70;;;10.20;99.30;;;;;;5036674;28;20048;-72
2022/04/29 05:24:05;;;;;;;13.18;6.40;;;10.40;99.30;;;;;;5053222;28;20037;-73
2022/04/29 05:26:31;;;;;;;10.20;5.97;;;10.40;99.10;;;;;;5036543;28;20056;-73
2022/04/29 05:28:56;;;;;;;12.43;6.43;;;10.40;99.00;;;;;;5053218;28;20045;-73
2022/04/29 05:31:22;;;;;;;11.57;5.18;;;10.50;98.90;;;;;;5052747;28;20052;-72
2022/04/29 05:33:48;;;;;;;13.50;6.13;;;10.60;98.70;;;;;;5052585;28;20507;-72
2022/04/29 05:36:14;;;;;;;9.45;5.00;;;10.60;98.80;;;;;;5053228;28;20542;-72
2022/04/29 05:44:09;;;;;;;9.13;4.90;;;10.70;98.50;;;;;;5053057;28;20088;-73
2022/04/29 05:46:35;;;;;;;11.85;5.30;;;10.80;98.30;;;;;;5053310;28;20045;-73
2022/04/29 05:49:02;;;;;;;10.38;5.28;;;10.90;98.50;;;;;;5036476;28;20053;-73
2022/04/29 05:51:28;;;;;;;9.80;4.93;;;10.90;98.30;;;;;;5035741;28;20103;-73
2022/04/29 05:53:54;;;;;;;11.68;4.85;;;11.00;98.50;;;;;;5053710;28;20053;-72
2022/04/29 05:56:19;;;;;;;11.95;5.22;;;11.00;98.60;;;;;;5036057;28;20131;-73
2022/04/29 05:58:45;;;;;;;9.77;4.65;;;11.00;98.40;;;;;;5036581;28;20419;-73
2022/04/29 06:01:11;;;;;;;11.38;4.35;;;11.00;98.20;;;;;;5036166;28;20136;-73
2022/04/29 06:03:37;;;;;;;8.23;4.32;;;11.00;98.10;;;;;;5053590;28;20440;-73
2022/04/29 06:06:03;;;;;;;35.88;8.48;;;11.10;98.10;;;;;;5036005;28;20071;-73
2022/04/29 06:08:29;;;;;;;10.77;4.32;;;11.10;98.10;;;;;;5036197;28;20049;-73
2022/04/29 06:10:54;;;;;;;15.63;4.90;;;11.20;97.90;;;;;;5036149;28;20045;-73
2022/04/29 06:13:20;;;;;;;12.27;4.88;;;11.20;97.90;;;;;;5053559;28;20462;-73
2022/04/29 06:15:46;;;;;;;7.50;4.07;;;11.10;98.00;;;;;;5035856;28;20472;-73
2022/04/29 06:18:12;;;;;;;9.15;4.45;;;11.00;98.10;;;;;;5035482;28;20094;-73
2022/04/29 06:20:38;;;;;;;8.18;4.53;;;11.10;98.00;;;;;;5035686;28;20052;-73
2022/04/29 06:23:04;;;;;;;7.70;4.70;;;11.10;98.10;;;;;;5035768;28;20063;-73
2022/04/29 06:25:29;;;;;;;14.18;4.90;;;11.10;98.00;;;;;;5035731;28;20047;-73
2022/04/29 06:27:55;;;;;;;9.20;4.70;;;11.20;98.20;;;;;;5019442;28;20045;-73
2022/04/29 06:30:21;;;;;;;12.75;4.55;;;11.30;98.00;;;;;;5035271;28;20041;-73
2022/04/29 06:32:47;;;;;;;10.45;4.82;;;11.00;98.00;;;;;;5053148;28;20055;-73
2022/04/29 06:35:13;;;;;;;10.45;4.50;;;11.10;98.10;;;;;;5035551;28;20057;-74
2022/04/29 06:37:39;;;;;;;13.68;5.05;;;11.20;98.10;;;;;;5035718;28;20045;-73
2022/04/29 06:40:06;;;;;;;9.00;4.25;;;11.30;97.90;;;;;;5035645;28;20076;-73
2022/04/29 06:42:45;;;;;;;8.25;3.78;;;11.30;97.80;;;;;;5035686;28;20049;-73
2022/04/29 06:45:12;;;;;;;11.98;4.13;;;11.40;97.90;;;;;;5056969;28;20464;-72
2022/04/29 06:47:37;;;;;;;9.63;4.10;;;11.40;97.80;;;;;;5043898;28;20384;-72
2022/04/29 06:50:03;;;;;;;9.00;3.85;;;11.40;98.00;;;;;;5056990;28;20060;-73
2022/04/29 06:52:29;;;;;;;11.68;4.00;;;11.60;97.60;;;;;;5056376;28;20122;-72
2022/04/29 06:54:55;;;;;;;11.27;3.67;;;11.40;97.30;;;;;;5057093;28;20151;-73
2022/04/29 06:57:21;;;;;;;9.80;3.97;;;11.30;97.40;;;;;;5056025;28;20044;-72
2022/04/29 06:59:49;;;;;;;11.80;4.03;;;11.40;97.70;;;;;;5055941;28;20053;-72
2022/04/29 07:02:16;;;;;;;7.32;3.45;;;11.50;97.60;;;;;;5056934;28;20044;-72
2022/04/29 07:04:42;;;;;;;7.65;3.67;;;11.50;97.70;;;;;;5057166;28;20462;-72
2022/04/29 07:07:11;;;;;;;11.75;3.90;;;11.50;97.30;;;;;;5056788;28;20534;-72
2022/04/29 07:09:39;;;;;;;9.30;3.67;;;11.60;97.30;;;;;;5056622;28;20128;-72
2022/04/29 07:12:06;;;;;;;11.30;3.63;;;11.60;97.10;;;;;;5056678;28;20049;-72
2022/04/29 07:14:31;;;;;;;10.25;3.40;;;11.70;97.10;;;;;;5056663;28;20476;-72
2022/04/29 07:16:57;;;;;;;9.10;3.65;;;11.70;97.00;;;;;;5055345;28;20060;-73
2022/04/29 07:19:23;;;;;;;9.77;3.80;;;11.70;97.10;;;;;;5056574;28;20045;-72
2022/04/29 07:21:49;;;;;;;9.27;4.03;;;11.90;97.60;;;;;;5056478;28;20045;-72
2022/04/29 07:24:14;;;;;;;12.05;3.80;;;11.90;97.20;;;;;;5055515;28;20047;-73
2022/04/29 07:26:40;;;;;;;8.27;3.85;;;12.00;97.20;;;;;;5038906;28;20137;-72
2022/04/29 07:29:07;;;;;;;6.70;3.80;;;12.00;97.10;;;;;;5053989;28;20072;-72
2022/04/29 07:31:33;;;;;;;12.23;3.60;;;12.10;97.20;;;;;;5056150;28;20543;-72
2022/04/29 07:33:59;;;;;;;7.40;3.33;;;12.00;97.20;;;;;;5056183;28;20044;-73
2022/04/29 07:41:53;;;;;;;6.47;2.92;;;12.10;96.80;;;;;;5043356;28;20052;-73
2022/04/29 07:44:19;;;;;;;6.88;2.78;;;12.20;96.60;;;;;;5056139;28;20049;-71
2022/04/29 07:46:47;;;;;;;6.28;2.60;;;12.20;96.30;;;;;;5055504;28;20123;-72
2022/04/29 07:49:13;;;;;;;8.15;2.47;;;12.00;96.40;;;;;;5038232;28;20484;-71
2022/04/29 07:51:40;;;;;;;4.85;2.53;;;11.80;96.20;;;;;;5038229;28;20091;-72
2022/04/29 07:54:07;;;;;;;5.28;2.58;;;11.90;96.20;;;;;;5055892;28;20123;-71
2022/04/29 07:56:33;;;;;;;9.82;3.42;;;11.70;96.10;;;;;;5054789;28;20107;-72
2022/04/29 07:58:59;;;;;;;4.97;2.50;;;11.80;96.30;;;;;;5038211;28;20480;-72
2022/04/29 08:01:27;;;;;;;5.63;2.85;;;11.70;96.00;;;;;;5055714;28;20045;-72
2022/04/29 08:03:54;;;;;;;7.28;2.70;;;11.80;96.00;;;;;;5055370;28;20044;-72
2022/04/29 08:06:20;;;;;;;8.43;3.00;;;11.90;96.10;;;;;;5038016;28;20049;-71
2022/04/29 08:08:46;;;;;;;7.15;2.83;;;11.80;95.90;;;;;;5038082;28;20049;-71
2022/04/29 08:11:12;;;;;;;8.00;3.10;;;11.90;96.00;;;;;;5037726;28;20048;-73
2022/04/29 08:13:38;;;;;;;6.75;3.03;;;11.80;96.00;;;;;;5055745;28;20048;-72
2022/04/29 08:16:04;;;;;;;7.25;2.30;;;12.10;96.30;;;;;;5037382;28;20057;-71
2022/04/29 08:18:31;;;;;;;9.32;2.60;;;12.00;96.00;;;;;;5037436;28;20473;-72
2022/04/29 08:20:57;;;;;;;10.48;3.33;;;12.00;96.00;;;;;;5037867;28;20068;-71
2022/04/29 08:23:23;;;;;;;6.85;2.55;;;11.90;96.00;;;;;;5021242;28;20067;-75
2022/04/29 08:25:49;;;;;;;11.48;2.92;;;11.80;96.20;;;;;;5037364;28;20044;-71
2022/04/29 08:28:15;;;;;;;5.10;1.98;;;11.70;96.00;;;;;;5054884;28;20045;-71
2022/04/29 08:30:41;;;;;;;7.68;1.95;;;11.70;96.00;;;;;;5037498;28;20053;-88
2022/04/29 08:33:12;;;;;;;3.97;1.80;;;11.90;95.90;;;;;;5021133;28;20045;-74
2022/04/29 08:35:37;;;;;;;4.32;2.03;;;12.10;96.10;;;;;;5037476;28;20399;-72
2022/04/29 08:38:04;;;;;;;7.82;2.42;;;12.30;96.00;;;;;;5055098;28;20135;-71
2022/04/29 08:40:30;;;;;;;7.25;2.17;;;12.50;96.20;;;;;;5037406;28;20471;-72
2022/04/29 08:42:57;;;;;;;6.85;1.90;;;12.40;95.60;;;;;;5038071;28;20049;-90
2022/04/29 08:45:23;;;;;;;9.23;2.03;;;12.30;95.70;;;;;;5037526;28;20045;-71
2022/04/29 08:47:48;;;;;;;9.10;2.00;;;12.40;95.80;;;;;;5054575;28;20384;-72
2022/04/29 08:50:20;;;;;;;5.38;2.03;;;12.40;95.70;;;;;;5054729;28;20475;-71
2022/04/29 08:52:46;;;;;;;5.85;2.17;;;12.10;95.70;;;;;;5054815;28;20048;-72
2022/04/29 09:00:44;;;;;;;4.97;2.05;;;12.30;96.00;;;;;;5054674;28;20045;-71
2022/04/29 09:03:14;;;;;;;6.78;2.10;;;12.40;96.10;;;;;;5036777;28;20045;-71
2022/04/29 09:05:41;;;;;;;6.82;2.33;;;12.40;95.80;;;;;;5054503;28;20723;-72
2022/04/29 09:08:07;;;;;;;5.43;2.35;;;12.20;95.70;;;;;;5054503;28;20090;-71
2022/04/29 09:10:35;;;;;;;8.00;2.25;;;12.20;95.80;;;;;;5036584;28;20116;-71
2022/04/29 09:13:15;;;;;;;6.05;2.20;;;12.30;95.90;;;;;;5036776;28;20476;-71
2022/04/29 09:15:49;;;;;;;11.25;2.45;;;12.20;95.90;;;;;;5036768;28;20057;-71
2022/04/29 09:18:28;;;;;;;7.50;2.83;;;12.20;95.90;;;;;;5036026;28;20476;-73
2022/04/29 09:20:53;;;;;;;6.60;2.40;;;12.20;95.90;;;;;;5036592;28;20048;-72
2022/04/29 09:23:28;;;;;;;6.93;2.67;;;12.30;95.90;;;;;;5036674;28;20496;-72
2022/04/29 09:25:56;;;;;;;8.63;2.63;;;12.30;95.80;;;;;;5054236;28;20048;-72
2022/04/29 09:28:23;;;;;;;6.78;2.63;;;12.20;95.70;;;;;;5054054;28;20049;-71
2022/04/29 09:30:55;;;;;;;7.40;2.50;;;12.20;95.80;;;;;;5053950;28;20037;-72
2022/04/29 09:33:25;;;;;;;8.23;2.65;;;12.00;95.50;;;;;;5054008;28;20381;-72
2022/04/29 09:35:51;;;;;;;16.70;3.03;;;11.90;95.60;;;;;;5053975;28;20060;-71
2022/04/29 09:41:03;;;;;;;6.82;2.17;;;12.00;95.80;;;;;;5053970;28;20138;-70
2022/04/29 09:43:44;;;;;;;8.07;2.50;;;12.10;95.60;;;;;;5053825;28;20055;-72
2022/04/29 09:46:22;;;;;;;9.05;2.13;;;12.10;95.70;;;;;;5054162;28;20091;-77
2022/04/29 09:49:00;;;;;;;13.52;2.70;;;12.00;95.60;;;;;;5050644;28;20202;-76
2022/04/29 09:51:43;;;;;;;91.78;9.48;;;12.00;95.60;;;;;;5052539;28;20045;-75
2022/04/29 09:54:11;;;;;;;22.98;4.68;;;11.80;95.40;;;;;;5052796;28;20539;-76
2022/04/29 09:56:38;;;;;;;29.05;5.57;;;11.70;95.50;;;;;;5052999;28;20053;-76
2022/04/29 09:59:05;;;;;;;17.08;3.20;;;11.70;95.70;;;;;;5036354;28;20110;-76
2022/04/29 10:01:31;;;;;;;98.65;26.83;;;11.90;95.80;;;;;;5052720;28;20530;-78
2022/04/29 10:04:00;;;;;;;67.03;20.75;;;12.10;95.60;;;;;;5052572;28;20392;-68
2022/04/29 10:06:27;;;;;;;80.10;24.65;;;12.30;95.50;;;;;;5053741;28;20049;-68
2022/04/29 10:08:56;;;;;;;61.55;19.33;;;12.50;95.50;;;;;;5053636;28;20045;-69
2022/04/29 10:11:22;;;;;;;13.00;4.75;;;12.60;95.40;;;;;;5052417;28;20077;-69
2022/04/29 10:13:50;;;;;;;10.40;4.20;;;12.50;95.20;;;;;;5036120;28;20484;-68
2022/04/29 10:16:18;;;;;;;16.45;5.30;;;12.70;95.20;;;;;;5052376;28;20093;-78
2022/04/29 10:21:46;;;;;;;6.28;2.75;;;12.40;95.20;;;;;;5059570;28;20075;-76
2022/04/29 10:24:12;;;;;;;11.73;3.67;;;12.30;95.20;;;;;;5060209;28;20044;-76
2022/04/29 10:26:38;;;;;;;9.00;3.95;;;12.30;95.40;;;;;;5059127;28;20494;-77
2022/04/29 10:29:05;;;;;;;13.25;3.42;;;12.50;95.30;;;;;;5059060;28;20049;-76
2022/04/29 10:31:30;;;;;;;9.00;3.17;;;12.40;95.30;;;;;;5059544;28;20594;-77
2022/04/29 10:34:26;;;;;;;7.43;2.60;;;12.50;95.10;;;;;;5059612;28;20139;-77
2022/04/29 10:36:52;;;;;;;13.05;3.17;;;12.60;95.00;;;;;;5059312;28;20056;-77
2022/04/29 10:39:19;;;;;;;7.80;2.58;;;12.70;95.00;;;;;;5042736;28;20384;-75
2022/04/29 10:42:06;;;;;;;6.03;2.60;;;12.60;94.90;;;;;;5059570;28;20060;-72
2022/04/29 10:44:32;;;;;;;8.15;2.85;;;12.90;94.90;;;;;;5060327;28;20049;-72
2022/04/29 10:47:25;;;;;;;6.13;3.20;;;12.90;94.90;;;;;;5059379;28;20483;-72
2022/04/29 10:49:50;;;;;;;9.45;3.60;;;12.80;94.80;;;;;;5025348;28;20505;-71
2022/04/29 10:52:28;;;;;;;8.25;4.00;;;12.60;94.80;;;;;;5042254;28;20127;-71
2022/04/29 10:54:58;;;;;;;9.45;3.90;;;12.50;94.90;;;;;;5042173;28;20090;-71
2022/04/29 10:57:57;;;;;;;7.03;3.75;;;12.40;94.90;;;;;;5042298;28;20060;-71
2022/04/29 11:00:24;;;;;;;4.30;3.72;;;12.20;95.20;;;;;;4988804;28;20464;-72
2022/04/29 11:02:49;;;;;;;4.47;2.88;;;12.20;95.10;;;;;;5059838;28;20053;-71
2022/04/29 11:05:38;;;;;;;6.78;3.20;;;12.40;95.30;;;;;;5059703;28;20549;-70
2022/04/29 11:08:09;;;;;;;8.55;4.47;;;12.60;95.10;;;;;;5042029;28;20140;-70
2022/04/29 11:10:56;;;;;;;8.25;3.97;;;12.40;95.00;;;;;;5041920;28;20084;-70
2022/04/29 11:13:26;;;;;;;6.55;3.55;;;12.40;94.90;;;;;;5041992;28;20049;-71
2022/04/29 11:15:52;;;;;;;6.95;3.30;;;12.40;94.70;;;;;;5042034;28;20071;-73
2022/04/29 11:18:26;;;;;;;9.77;3.80;;;12.30;94.90;;;;;;5059246;28;20532;-70
2022/04/29 11:20:57;;;;;;;5.72;3.25;;;12.10;94.80;;;;;;5042085;28;20058;-70
2022/04/29 11:26:17;;;;;;;7.15;3.60;;;12.20;94.70;;;;;;5043889;28;20103;-72
2022/04/29 11:28:42;;;;;;;8.77;3.30;;;12.10;94.60;;;;;;5041878;28;20048;-71
2022/04/29 11:31:10;;;;;;;11.75;3.90;;;12.20;94.90;;;;;;5038724;28;20052;-71
2022/04/29 11:33:37;;;;;;;7.30;2.72;;;12.40;94.70;;;;;;5038594;28;20049;-71
2022/04/29 11:36:11;;;;;;;7.93;2.60;;;12.30;94.30;;;;;;5038907;28;20059;-72
2022/04/29 11:38:44;;;;;;;8.20;2.78;;;12.40;94.60;;;;;;5056207;28;20048;-71
2022/04/29 11:41:21;;;;;;;10.40;2.70;;;12.50;94.40;;;;;;5038750;28;20551;-70
2022/04/29 11:43:48;;;;;;;7.18;2.50;;;12.60;94.10;;;;;;5055885;28;20052;-70
2022/04/29 11:46:15;;;;;;;7.00;2.60;;;12.50;94.30;;;;;;5038444;28;20496;-67
2022/04/29 11:48:54;;;;;;;6.25;2.65;;;12.60;94.10;;;;;;5056087;28;20122;-73
2022/04/29 11:51:20;;;;;;;10.70;2.60;;;12.70;94.20;;;;;;5056318;28;20045;-72
2022/04/29 11:53:54;;;;;;;7.45;2.63;;;12.50;94.10;;;;;;5055892;28;20040;-72
2022/04/29 11:56:20;;;;;;;3.72;2.40;;;12.50;94.30;;;;;;5055864;28;20048;-73
2022/04/29 11:58:45;;;;;;;10.23;3.15;;;12.60;94.40;;;;;;5055671;28;20049;-72
2022/04/29 12:01:15;;;;;;;5.32;2.50;;;12.80;94.20;;;;;;5038177;28;20507;-72
2022/04/29 12:03:49;;;;;;;4.80;2.40;;;12.70;94.20;;;;;;5055982;28;20048;-73
2022/04/29 12:06:16;;;;;;;4.75;2.28;;;12.60;94.00;;;;;;5055846;28;20037;-71
2022/04/29 12:08:42;;;;;;;5.18;2.35;;;12.60;93.90;;;;;;5055762;28;20056;-71
2022/04/29 12:11:08;;;;;;;6.65;2.30;;;12.70;94.10;;;;;;5055602;28;20522;-71
2022/04/29 12:13:36;;;;;;;6.20;2.08;;;12.50;94.20;;;;;;5021859;28;20140;-72
2022/04/29 12:16:04;;;;;;;4.88;2.30;;;12.50;93.90;;;;;;5055550;28;20051;-72
2022/04/29 12:18:44;;;;;;;7.63;2.80;;;12.40;94.20;;;;;;5055062;28;20045;-72
2022/04/29 12:21:11;;;;;;;7.35;2.70;;;12.50;94.20;;;;;;5055468;28;20045;-72
2022/04/29 12:23:37;;;;;;;5.85;2.80;;;12.70;94.10;;;;;;5037825;28;20124;-72
2022/04/29 12:26:04;;;;;;;5.45;2.75;;;12.70;94.10;;;;;;5037829;28;20101;-72
2022/04/29 12:28:31;;;;;;;7.60;2.47;;;12.90;94.30;;;;;;5037878;28;20075;-72
2022/04/29 12:36:53;;;;;;;7.30;2.30;;;13.10;93.80;;;;;;5055610;28;20135;-72
2022/04/29 12:39:24;;;;;;;6.70;2.28;;;13.20;93.90;;;;;;5037512;28;20174;-71
2022/04/29 12:41:57;;;;;;;6.13;2.47;;;13.10;93.60;;;;;;5054574;28;20045;-72
2022/04/29 12:47:22;;;;;;;6.07;2.55;;;13.60;93.80;;;;;;5038134;28;20500;-72
2022/04/29 12:49:48;;;;;;;7.63;2.50;;;13.40;93.70;;;;;;5054909;28;20053;-72
2022/04/29 12:52:15;;;;;;;3.95;2.28;;;13.30;93.90;;;;;;5054563;28;20063;-72
2022/04/29 12:54:40;;;;;;;6.65;2.58;;;13.40;93.80;;;;;;5054899;28;20056;-71
2022/04/29 12:57:06;;;;;;;5.70;2.80;;;13.30;94.00;;;;;;5054803;28;20045;-69
2022/04/29 12:59:36;;;;;;;6.32;2.40;;;13.50;93.90;;;;;;5053833;28;20045;-72
2022/04/29 13:02:05;;;;;;;5.60;2.50;;;13.60;93.70;;;;;;5053745;28;20072;-68
2022/04/29 13:04:31;;;;;;;6.57;2.20;;;13.50;93.80;;;;;;5054621;28;20052;-69
2022/04/29 13:06:56;;;;;;;5.55;2.38;;;13.60;93.80;;;;;;5054646;28;20045;-68
2022/04/29 13:09:24;;;;;;;4.95;2.60;;;13.60;93.60;;;;;;5054522;28;20147;-69
2022/04/29 13:11:51;;;;;;;4.50;2.30;;;13.90;93.80;;;;;;5053243;28;20048;-68
2022/04/29 13:14:16;;;;;;;4.30;2.10;;;13.70;93.60;;;;;;5053482;28;20106;-69
2022/04/29 13:16:44;;;;;;;6.93;2.50;;;13.70;93.80;;;;;;5053146;28;20053;-69
2022/04/29 13:19:11;;;;;;;9.25;3.05;;;13.60;93.70;;;;;;5053569;28;20080;-68
2022/04/29 13:21:36;;;;;;;9.13;2.70;;;13.70;93.90;;;;;;5054326;28;20127;-68
2022/04/29 13:24:02;;;;;;;6.50;2.40;;;13.70;94.00;;;;;;5054121;28;20131;-69
2022/04/29 13:26:28;;;;;;;5.28;2.15;;;13.90;94.10;;;;;;5054223;28;20438;-68